createdAt,value
2023-04-16T00:01:59.791Z,101324.91
2023-04-16T00:07:01.413Z,101331.75
2023-04-16T00:12:03.469Z,101326.25
2023-04-16T00:17:05.108Z,101320.66
2023-04-16T00:22:06.845Z,101322.78
2023-04-16T00:27:08.475Z,101321.16
2023-04-16T00:32:10.050Z,101326.56
2023-04-16T00:37:11.634Z,101330.97
2023-04-16T00:42:13.290Z,101331.00
2023-04-16T00:47:15.022Z,101324.25
2023-04-16T00:52:16.701Z,101326.38
2023-04-16T00:57:18.722Z,101335.03
2023-04-16T01:02:20.471Z,101332.91
2023-04-16T01:07:24.821Z,101341.63
2023-04-16T01:12:26.425Z,101340.63
2023-04-16T01:17:28.178Z,101333.72
2023-04-16T01:22:29.856Z,101332.44
2023-04-16T01:27:31.557Z,101348.97
2023-04-16T01:32:33.157Z,101349.59
2023-04-16T01:37:35.065Z,101349.94
2023-04-16T01:42:38.146Z,101347.66
2023-04-16T01:47:40.419Z,101352.56
2023-04-16T01:52:42.099Z,101360.75
2023-04-16T01:57:43.666Z,101357.47
2023-04-16T02:02:47.463Z,101360.53
2023-04-16T02:07:56.012Z,101361.56
2023-04-16T02:12:57.529Z,101360.06
2023-04-16T02:17:59.191Z,101354.34
2023-04-16T02:23:00.760Z,101348.78
2023-04-16T02:28:02.905Z,101350.22
2023-04-16T02:33:13.099Z,101360.22
2023-04-16T02:38:22.781Z,101342.22
2023-04-16T02:43:24.482Z,101350.22
2023-04-16T02:48:26.110Z,101353.84
2023-04-16T02:53:27.771Z,101351.75
2023-04-16T02:58:29.563Z,101355.50
2023-04-16T03:03:31.360Z,101352.06
2023-04-16T03:08:33.052Z,101355.84
2023-04-16T03:13:34.720Z,101357.94
2023-04-16T03:18:36.418Z,101353.69
2023-04-16T03:23:38.036Z,101355.19
2023-04-16T03:28:39.585Z,101359.91
2023-04-16T03:33:41.496Z,101365.63
2023-04-16T03:38:43.269Z,101365.31
2023-04-16T03:43:45.273Z,101369.09
2023-04-16T03:48:46.934Z,101376.44
2023-04-16T03:53:49.139Z,101382.31
2023-04-16T03:58:51.349Z,101383.66
2023-04-16T04:03:54.106Z,101381.34
2023-04-16T04:08:55.844Z,101380.69
2023-04-16T04:13:58.766Z,101383.63
2023-04-16T04:19:00.591Z,101386.59
2023-04-16T04:24:02.821Z,101391.00
2023-04-16T04:29:05.030Z,101400.31
2023-04-16T04:34:06.716Z,101400.50
2023-04-16T04:39:08.912Z,101399.84
2023-04-16T04:44:11.124Z,101405.41
2023-04-16T04:49:12.922Z,101411.00
2023-04-16T04:54:14.724Z,101404.78
2023-04-16T04:59:20.159Z,101406.56
2023-04-16T05:04:22.075Z,101404.78
2023-04-16T05:09:23.884Z,101406.59
2023-04-16T05:14:25.435Z,101414.44
2023-04-16T05:19:27.129Z,101413.78
2023-04-16T05:24:29.268Z,101422.16
2023-04-16T05:29:31.046Z,101422.97
2023-04-16T05:34:32.777Z,101429.00
2023-04-16T05:39:34.383Z,101437.56
2023-04-16T05:44:36.098Z,101447.19
2023-04-16T05:49:37.957Z,101442.78
2023-04-16T05:54:39.618Z,101447.03
2023-04-16T05:59:41.274Z,101449.66
2023-04-16T06:04:43.842Z,101466.88
2023-04-16T06:09:45.614Z,101455.59
2023-04-16T06:14:47.328Z,101456.75
2023-04-16T06:19:49.189Z,101467.22
2023-04-16T06:24:50.749Z,101461.50
2023-04-16T06:29:52.359Z,101458.72
2023-04-16T06:34:54.147Z,101471.47
2023-04-16T06:39:55.672Z,101473.94
2023-04-16T06:44:57.582Z,101480.50
2023-04-16T06:49:59.194Z,101487.53
2023-04-16T06:55:01.260Z,101483.78
2023-04-16T07:00:03.832Z,101481.81
2023-04-16T07:05:06.018Z,101483.91
2023-04-16T07:10:08.023Z,101494.25
2023-04-16T07:15:10.323Z,101499.50
2023-04-16T07:20:12.252Z,101502.97
2023-04-16T07:25:13.813Z,101511.34
2023-04-16T07:30:15.425Z,101513.97
2023-04-16T07:35:17.303Z,101513.97
2023-04-16T07:40:18.824Z,101519.69
2023-04-16T07:45:20.511Z,101523.47
2023-04-16T07:50:22.141Z,101528.91
2023-04-16T07:55:23.798Z,101525.47
2023-04-16T08:00:25.372Z,101537.94
2023-04-16T08:05:27.129Z,101540.41
2023-04-16T08:10:28.871Z,101546.47
2023-04-16T08:15:30.628Z,101548.09
2023-04-16T08:20:32.926Z,101557.47
2023-04-16T08:25:35.422Z,101562.66
2023-04-16T08:30:37.110Z,101569.00
2023-04-16T08:35:38.791Z,101575.38
2023-04-16T08:40:41.799Z,101572.88
2023-04-16T08:45:44.034Z,101586.59
2023-04-16T08:50:47.855Z,101582.47
2023-04-16T08:55:51.300Z,101588.41
2023-04-16T09:00:53.804Z,101591.84
2023-04-16T09:05:58.042Z,101591.84
2023-04-16T09:11:00.015Z,101602.19
2023-04-16T09:16:02.870Z,101598.22
2023-04-16T09:21:04.561Z,101594.34
2023-04-16T09:26:06.227Z,101603.28
2023-04-16T09:31:18.274Z,101612.09
2023-04-16T09:36:23.633Z,101617.03
2023-04-16T09:41:27.621Z,101617.53
2023-04-16T09:46:35.367Z,101615.19
2023-04-16T09:51:38.172Z,101626.72
2023-04-16T09:56:44.494Z,101629.59
2023-04-16T10:01:46.171Z,101623.50
2023-04-16T10:07:04.604Z,101627.59
2023-04-16T10:12:06.835Z,101635.94
2023-04-16T10:17:09.605Z,101635.88
2023-04-16T10:22:11.427Z,101638.84
2023-04-16T10:27:13.147Z,101631.28
2023-04-16T10:32:16.113Z,101645.94
2023-04-16T10:37:17.670Z,101641.53
2023-04-16T10:42:19.319Z,101641.63
2023-04-16T10:47:24.705Z,101639.09
2023-04-16T10:52:29.405Z,101643.50
2023-04-16T10:57:30.947Z,101639.34
2023-04-16T11:02:32.715Z,101646.66
2023-04-16T11:07:35.338Z,101643.75
2023-04-16T11:12:40.951Z,101644.88
2023-04-16T11:17:50.323Z,101644.94
2023-04-16T11:22:55.013Z,101639.66
2023-04-16T11:27:57.305Z,101639.13
2023-04-16T11:32:59.041Z,101636.44
2023-04-16T11:38:00.708Z,101652.00
2023-04-16T11:43:03.933Z,101643.72
2023-04-16T11:48:05.697Z,101650.91
2023-04-16T11:53:07.412Z,101641.16
2023-04-16T11:58:13.135Z,101642.63
2023-04-16T12:03:15.277Z,101641.28
2023-04-16T12:08:29.645Z,101641.94
2023-04-16T12:13:31.164Z,101653.53
2023-04-16T12:18:32.733Z,101661.66
2023-04-16T12:23:34.279Z,101660.06
2023-04-16T12:28:36.970Z,101655.31
2023-04-16T12:33:38.600Z,101654.56
2023-04-16T12:38:40.257Z,101659.78
2023-04-16T12:43:41.856Z,101657.78
2023-04-16T12:48:43.501Z,101659.13
2023-04-16T12:53:45.185Z,101662.50
2023-04-16T12:58:46.770Z,101652.50
2023-04-16T13:03:48.829Z,101652.69
2023-04-16T13:08:50.592Z,101649.03
2023-04-16T13:13:52.139Z,101658.00
2023-04-16T13:18:53.771Z,101648.34
2023-04-16T13:23:55.317Z,101647.16
2023-04-16T13:28:56.907Z,101649.81
2023-04-16T13:33:58.424Z,101652.09
2023-04-16T13:39:00.149Z,101650.69
2023-04-16T13:44:01.833Z,101645.56
2023-04-16T13:49:03.378Z,101638.84
2023-04-16T13:54:04.998Z,101637.59
2023-04-16T13:59:08.085Z,101643.94
2023-04-16T14:04:09.836Z,101635.38
2023-04-16T14:09:11.649Z,101643.34
2023-04-16T14:14:13.439Z,101648.84
2023-04-16T14:19:15.015Z,101645.78
2023-04-16T14:24:16.582Z,101643.94
2023-04-16T14:29:18.121Z,101643.44
2023-04-16T14:34:19.823Z,101644.06
2023-04-16T14:39:21.497Z,101645.00
2023-04-16T14:44:23.166Z,101648.56
2023-04-16T14:49:26.163Z,101639.34
2023-04-16T14:54:28.152Z,101638.63
2023-04-16T14:59:29.675Z,101643.16
2023-04-16T15:04:31.545Z,101638.88
2023-04-16T15:09:34.412Z,101641.88
2023-04-16T15:14:35.971Z,101642.66
2023-04-16T15:19:37.663Z,101648.03
2023-04-16T15:24:39.194Z,101639.69
2023-04-16T15:29:40.736Z,101643.97
2023-04-16T15:34:42.303Z,101638.03
2023-04-16T15:39:43.905Z,101642.50
2023-04-16T15:44:45.433Z,101645.16
2023-04-16T15:49:47.166Z,101643.72
2023-04-16T15:54:49.039Z,101634.34
2023-04-16T16:00:05.837Z,101642.47
2023-04-16T16:05:15.422Z,101642.72
2023-04-16T16:10:16.999Z,101639.28
2023-04-16T16:15:18.684Z,101627.50
2023-04-16T16:20:20.342Z,101631.28
2023-04-16T16:25:21.928Z,101640.47
2023-04-16T16:30:23.443Z,101640.41
2023-04-16T16:35:25.066Z,101637.44
2023-04-16T16:40:26.578Z,101636.59
2023-04-16T16:45:28.135Z,101637.41
2023-04-16T16:50:31.847Z,101644.97
2023-04-16T16:55:33.578Z,101635.38
2023-04-16T17:00:35.351Z,101641.81
2023-04-16T17:05:36.952Z,101639.06
2023-04-16T17:10:38.483Z,101644.06
2023-04-16T17:15:40.193Z,101643.38
2023-04-16T17:20:41.896Z,101639.28
2023-04-16T17:25:43.420Z,101643.59
2023-04-16T17:30:45.341Z,101646.75
2023-04-16T17:35:46.993Z,101652.44
2023-04-16T17:40:48.518Z,101651.13
2023-04-16T17:45:50.316Z,101652.53
2023-04-16T17:50:51.905Z,101666.38
2023-04-16T17:55:56.549Z,101660.44
2023-04-16T18:00:59.235Z,101658.63
2023-04-16T18:06:00.903Z,101681.09
2023-04-16T18:11:08.899Z,101671.19
2023-04-16T18:16:16.703Z,101678.25
2023-04-16T18:21:18.337Z,101683.59
2023-04-16T18:26:22.406Z,101679.63
2023-04-16T18:31:24.614Z,101677.41
2023-04-16T18:36:27.074Z,101689.66
2023-04-16T18:41:28.940Z,101699.63
2023-04-16T18:46:30.587Z,101706.59
2023-04-16T18:51:32.327Z,101704.47
2023-04-16T18:56:33.860Z,101713.34
2023-04-16T19:01:35.417Z,101716.81
2023-04-16T19:06:37.036Z,101718.97
2023-04-16T19:11:38.581Z,101718.09
2023-04-16T19:16:40.248Z,101727.97
2023-04-16T19:21:41.928Z,101720.53
2023-04-16T19:26:43.767Z,101732.25
2023-04-16T19:31:45.412Z,101729.28
2023-04-16T19:36:47.108Z,101727.16
2023-04-16T19:41:48.868Z,101730.75
2023-04-16T19:46:50.370Z,101744.69
2023-04-16T19:51:52.171Z,101733.50
2023-04-16T19:56:53.758Z,101739.72
2023-04-16T20:01:55.476Z,101744.34
2023-04-16T20:06:57.423Z,101742.53
2023-04-16T20:11:59.291Z,101751.38
2023-04-16T20:17:00.832Z,101741.38
2023-04-16T20:22:02.651Z,101743.69
2023-04-16T20:27:04.231Z,101752.06
2023-04-16T20:32:05.938Z,101753.88
2023-04-16T20:37:07.903Z,101752.59
2023-04-16T20:42:09.430Z,101743.38
2023-04-16T20:47:11.983Z,101745.56
2023-04-16T20:52:14.419Z,101741.78
2023-04-16T20:57:16.162Z,101747.22
2023-04-16T21:02:17.867Z,101743.94
2023-04-16T21:07:19.528Z,101741.47
2023-04-16T21:12:21.042Z,101738.03
2023-04-16T21:17:22.825Z,101754.00
2023-04-16T21:22:24.464Z,101746.09
2023-04-16T21:27:26.328Z,101738.88
2023-04-16T21:32:29.123Z,101741.31
2023-04-16T21:37:30.678Z,101746.41
2023-04-16T21:42:35.815Z,101746.75
2023-04-16T21:47:37.884Z,101738.38
2023-04-16T21:52:39.523Z,101734.28
2023-04-16T21:57:41.158Z,101740.69
2023-04-16T22:02:43.253Z,101741.00
2023-04-16T22:07:44.955Z,101736.91
2023-04-16T22:12:46.611Z,101744.47
2023-04-16T22:17:48.209Z,101742.16
2023-04-16T22:22:50.270Z,101736.59
2023-04-16T22:27:52.920Z,101743.00
2023-04-16T22:32:54.740Z,101742.16
2023-04-16T22:37:56.298Z,101758.75
2023-04-16T22:42:57.964Z,101748.56
2023-04-16T22:47:59.597Z,101750.72
2023-04-16T22:53:01.229Z,101742.81
2023-04-16T22:58:02.720Z,101749.06
2023-04-16T23:03:04.395Z,101747.06
2023-04-16T23:08:06.521Z,101740.88
2023-04-16T23:13:08.058Z,101748.88
2023-04-16T23:18:09.610Z,101740.50
2023-04-16T23:23:11.185Z,101739.56
2023-04-16T23:28:12.706Z,101748.09
2023-04-16T23:33:14.233Z,101742.00
2023-04-16T23:38:15.958Z,101740.69
2023-04-16T23:43:17.749Z,101738.56
2023-04-16T23:48:19.349Z,101740.38
2023-04-16T23:53:21.222Z,101729.53
2023-04-16T23:58:22.784Z,101745.94
